createdAt,value
2022-07-25T00:01:58.088Z,6.80
2022-07-25T00:04:28.194Z,8.52
2022-07-25T00:06:55.924Z,9.40
2022-07-25T00:09:23.461Z,10.23
2022-07-25T00:11:51.051Z,9.65
2022-07-25T00:14:18.676Z,12.38
2022-07-25T00:16:46.221Z,8.77
2022-07-25T00:19:13.867Z,13.07
2022-07-25T00:21:41.476Z,8.65
2022-07-25T00:24:09.740Z,8.30
2022-07-25T00:26:40.293Z,7.82
2022-07-25T00:29:09.010Z,9.15
2022-07-25T00:31:36.863Z,8.10
2022-07-25T00:34:05.276Z,10.02
2022-07-25T00:36:33.181Z,9.48
2022-07-25T00:39:01.182Z,10.52
2022-07-25T00:41:28.862Z,8.07
2022-07-25T00:43:56.439Z,10.90
2022-07-25T00:46:24.144Z,11.40
2022-07-25T00:48:51.970Z,8.35
2022-07-25T00:51:19.725Z,6.55
2022-07-25T00:53:48.036Z,15.90
2022-07-25T00:56:16.505Z,8.13
2022-07-25T00:58:45.617Z,9.25
2022-07-25T01:01:13.467Z,10.15
2022-07-25T01:03:41.082Z,8.73
2022-07-25T01:06:09.028Z,10.82
2022-07-25T01:08:36.931Z,8.87
2022-07-25T01:11:04.695Z,9.07
2022-07-25T01:13:34.179Z,8.85
2022-07-25T01:16:01.875Z,7.88
2022-07-25T01:18:29.585Z,9.35
2022-07-25T01:20:57.280Z,10.07
2022-07-25T01:23:24.835Z,12.20
2022-07-25T01:25:52.516Z,13.00
2022-07-25T01:28:20.083Z,9.13
2022-07-25T01:30:47.749Z,8.05
2022-07-25T01:33:17.080Z,10.30
2022-07-25T01:35:45.580Z,12.07
2022-07-25T01:38:13.822Z,9.18
2022-07-25T01:40:44.185Z,9.52
2022-07-25T01:43:12.214Z,10.52
2022-07-25T01:45:40.334Z,6.10
2022-07-25T01:48:08.367Z,12.65
2022-07-25T01:50:36.033Z,9.05
2022-07-25T01:53:04.468Z,9.88
2022-07-25T01:55:32.031Z,9.00
2022-07-25T01:58:00.111Z,8.47
2022-07-25T02:00:28.170Z,6.65
2022-07-25T02:03:14.357Z,9.15
2022-07-25T02:05:42.153Z,10.73
2022-07-25T02:08:11.214Z,7.97
2022-07-25T02:10:39.163Z,8.23
2022-07-25T02:13:07.173Z,8.40
2022-07-25T02:15:35.914Z,5.45
2022-07-25T02:18:04.551Z,6.00
2022-07-25T02:20:32.275Z,7.40
2022-07-25T02:22:59.838Z,7.30
2022-07-25T02:25:27.426Z,7.93
2022-07-25T02:27:55.074Z,7.18
2022-07-25T02:30:22.683Z,6.72
2022-07-25T02:32:50.291Z,5.70
2022-07-25T02:35:18.605Z,6.67
2022-07-25T02:37:46.493Z,7.55
2022-07-25T02:40:14.327Z,5.75
2022-07-25T02:42:42.015Z,6.82
2022-07-25T02:45:10.240Z,6.63
2022-07-25T02:47:38.233Z,5.70
2022-07-25T02:50:06.899Z,6.07
2022-07-25T02:52:35.894Z,4.93
2022-07-25T02:55:09.089Z,6.55
2022-07-25T02:57:38.070Z,4.50
2022-07-25T03:00:07.071Z,4.57
2022-07-25T03:02:35.903Z,5.05
2022-07-25T03:05:08.363Z,4.18
2022-07-25T03:07:36.243Z,4.55
2022-07-25T03:10:08.907Z,4.53
2022-07-25T03:12:40.557Z,3.23
2022-07-25T03:15:09.058Z,3.15
2022-07-25T03:17:37.108Z,3.45
2022-07-25T03:20:06.883Z,5.22
2022-07-25T03:22:35.249Z,4.20
2022-07-25T03:25:03.221Z,4.07
2022-07-25T03:27:31.379Z,3.92
2022-07-25T03:29:58.896Z,4.60
2022-07-25T03:32:26.467Z,4.03
2022-07-25T03:34:54.100Z,4.80
2022-07-25T03:37:22.261Z,3.73
2022-07-25T03:39:49.838Z,5.13
2022-07-25T03:42:17.501Z,4.03
2022-07-25T03:44:45.117Z,4.32
2022-07-25T03:47:20.321Z,3.28
2022-07-25T03:49:48.480Z,5.13
2022-07-25T03:52:16.019Z,4.90
2022-07-25T03:54:43.637Z,3.85
2022-07-25T03:57:12.601Z,4.63
2022-07-25T03:59:40.206Z,4.40
2022-07-25T04:02:07.776Z,3.57
2022-07-25T04:04:35.649Z,4.28
2022-07-25T04:07:03.530Z,4.32
2022-07-25T04:09:33.259Z,7.15
2022-07-25T04:12:01.499Z,4.35
2022-07-25T04:14:29.073Z,3.40
2022-07-25T04:16:56.687Z,4.65
2022-07-25T04:19:24.591Z,4.95
2022-07-25T04:21:55.321Z,4.75
2022-07-25T04:24:22.894Z,4.22
2022-07-25T04:26:50.494Z,3.10
2022-07-25T04:29:18.009Z,4.05
2022-07-25T04:31:45.685Z,3.15
2022-07-25T04:34:13.296Z,3.72
2022-07-25T04:36:40.913Z,3.20
2022-07-25T04:39:08.462Z,3.60
2022-07-25T04:41:36.159Z,3.25
2022-07-25T04:44:04.212Z,3.90
2022-07-25T04:46:34.007Z,2.65
2022-07-25T04:49:01.760Z,2.90
2022-07-25T04:51:29.451Z,3.73
2022-07-25T04:53:57.036Z,2.67
2022-07-25T04:56:24.646Z,2.90
2022-07-25T04:58:52.177Z,3.28
2022-07-25T05:01:19.829Z,2.75
2022-07-25T05:03:50.595Z,3.57
2022-07-25T05:06:19.685Z,2.25
2022-07-25T05:08:48.188Z,1.90
2022-07-25T05:11:15.794Z,2.70
2022-07-25T05:13:43.375Z,3.20
2022-07-25T05:16:10.998Z,2.57
2022-07-25T05:18:38.672Z,2.33
2022-07-25T05:21:10.636Z,1.92
2022-07-25T05:23:38.244Z,4.43
2022-07-25T05:26:05.976Z,2.78
2022-07-25T05:28:34.049Z,1.73
2022-07-25T05:31:01.697Z,1.67
2022-07-25T05:33:29.414Z,1.80
2022-07-25T05:35:58.408Z,3.22
2022-07-25T05:38:26.034Z,2.75
2022-07-25T05:40:53.642Z,2.60
2022-07-25T05:43:21.448Z,2.60
2022-07-25T05:45:49.133Z,2.70
2022-07-25T05:48:17.013Z,1.42
2022-07-25T05:50:46.184Z,1.85
2022-07-25T05:53:13.689Z,3.80
2022-07-25T05:55:41.261Z,2.55
2022-07-25T05:58:09.940Z,2.25
2022-07-25T06:00:37.975Z,1.48
2022-07-25T06:03:05.763Z,1.67
2022-07-25T06:05:33.820Z,1.97
2022-07-25T06:08:01.564Z,2.40
2022-07-25T06:10:29.173Z,2.22
2022-07-25T06:12:56.796Z,2.00
2022-07-25T06:15:27.076Z,3.05
2022-07-25T06:17:55.284Z,3.67
2022-07-25T06:20:23.193Z,2.55
2022-07-25T06:22:50.918Z,1.75
2022-07-25T06:25:19.015Z,1.70
2022-07-25T06:27:47.292Z,2.10
2022-07-25T06:30:20.200Z,3.23
2022-07-25T06:32:49.518Z,2.45
2022-07-25T06:35:18.176Z,2.45
2022-07-25T06:37:46.231Z,1.60
2022-07-25T06:40:14.569Z,3.92
2022-07-25T06:42:44.465Z,2.53
2022-07-25T06:45:12.982Z,2.40
2022-07-25T06:47:42.611Z,3.03
2022-07-25T06:50:13.658Z,1.48
2022-07-25T06:52:42.604Z,3.90
2022-07-25T06:55:11.820Z,4.23
2022-07-25T06:57:40.424Z,3.15
2022-07-25T07:00:11.262Z,2.08
2022-07-25T07:02:58.697Z,1.25
2022-07-25T07:05:29.114Z,2.67
2022-07-25T07:07:57.306Z,3.13
2022-07-25T07:10:25.840Z,2.80
2022-07-25T07:13:04.943Z,3.15
2022-07-25T07:15:36.336Z,2.10
2022-07-25T07:18:06.829Z,2.20
2022-07-25T07:20:34.704Z,2.23
2022-07-25T07:23:02.621Z,1.67
2022-07-25T07:25:30.955Z,2.42
2022-07-25T07:27:59.226Z,1.67
2022-07-25T07:30:58.605Z,2.67
2022-07-25T07:33:15.689Z,2.30
2022-07-25T07:35:46.445Z,4.05
2022-07-25T07:38:14.195Z,2.90
2022-07-25T07:40:41.782Z,3.08
2022-07-25T07:43:09.354Z,5.30
2022-07-25T07:45:37.015Z,2.87
2022-07-25T07:48:06.477Z,3.65
2022-07-25T07:50:34.482Z,4.15
2022-07-25T07:53:03.069Z,5.72
2022-07-25T07:55:48.871Z,3.63
2022-07-25T07:58:19.036Z,2.63
2022-07-25T08:00:48.624Z,2.63
2022-07-25T08:03:20.865Z,3.15
2022-07-25T08:05:49.955Z,3.10
2022-07-25T08:08:18.212Z,3.30
2022-07-25T08:10:48.205Z,3.00
2022-07-25T08:13:23.066Z,2.95
2022-07-25T08:16:03.109Z,2.33
2022-07-25T08:18:33.042Z,2.72
2022-07-25T08:21:04.230Z,3.28
2022-07-25T08:23:34.785Z,4.13
2022-07-25T08:26:02.647Z,3.75
2022-07-25T08:28:30.236Z,2.65
2022-07-25T08:30:59.205Z,4.15
2022-07-25T08:33:27.187Z,3.80
2022-07-25T08:35:55.833Z,3.90
2022-07-25T08:38:25.480Z,3.15
2022-07-25T08:40:54.989Z,3.05
2022-07-25T08:43:23.081Z,3.17
2022-07-25T08:45:52.780Z,3.17
2022-07-25T08:48:22.732Z,2.97
2022-07-25T08:50:51.498Z,2.45
2022-07-25T08:53:36.077Z,4.38
2022-07-25T08:56:12.200Z,3.97
2022-07-25T08:58:44.205Z,2.58
2022-07-25T09:01:13.829Z,2.60
2022-07-25T09:03:43.367Z,3.00
2022-07-25T09:06:19.207Z,2.80
2022-07-25T09:08:58.296Z,3.97
2022-07-25T09:11:31.315Z,2.38
2022-07-25T09:14:15.311Z,2.57
2022-07-25T09:16:45.437Z,2.08
2022-07-25T09:19:18.465Z,2.75
2022-07-25T09:22:01.835Z,2.72
2022-07-25T09:24:30.582Z,1.85
2022-07-25T09:27:02.259Z,2.43
2022-07-25T09:29:31.943Z,2.33
2022-07-25T09:32:00.959Z,2.08
2022-07-25T09:34:34.768Z,3.08
2022-07-25T09:37:08.058Z,2.40
2022-07-25T09:39:46.880Z,3.03
2022-07-25T09:42:29.171Z,2.72
2022-07-25T09:45:07.705Z,2.72
2022-07-25T09:47:38.134Z,3.15
2022-07-25T09:50:07.205Z,1.42
2022-07-25T09:52:35.530Z,1.57
2022-07-25T09:55:05.362Z,1.67
2022-07-25T09:57:32.999Z,2.70
2022-07-25T10:00:01.771Z,3.58
2022-07-25T10:02:54.949Z,2.42
2022-07-25T10:05:40.106Z,1.73
2022-07-25T10:08:08.832Z,1.55
2022-07-25T10:10:41.363Z,4.40
2022-07-25T10:13:15.514Z,2.55
2022-07-25T10:15:51.535Z,2.40
2022-07-25T10:18:24.974Z,2.03
2022-07-25T10:21:25.055Z,2.08
2022-07-25T10:24:06.214Z,3.55
2022-07-25T10:26:39.930Z,2.42
2022-07-25T10:29:10.020Z,1.67
2022-07-25T10:31:50.303Z,2.03
2022-07-25T10:34:33.682Z,1.92
2022-07-25T10:37:16.338Z,3.60
2022-07-25T10:39:46.001Z,1.83
2022-07-25T10:42:21.696Z,1.75
2022-07-25T10:44:53.626Z,3.10
2022-07-25T10:47:24.588Z,1.60
2022-07-25T10:53:00.796Z,2.83
2022-07-25T10:55:29.235Z,2.38
2022-07-25T10:58:17.251Z,1.90
2022-07-25T11:00:45.770Z,2.60
2022-07-25T11:03:17.819Z,2.20
2022-07-25T11:05:51.791Z,1.98
2022-07-25T11:08:22.054Z,4.95
2022-07-25T11:10:52.537Z,4.70
2022-07-25T11:13:20.293Z,4.75
2022-07-25T11:15:48.678Z,2.88
2022-07-25T11:18:18.586Z,4.72
2022-07-25T11:20:46.203Z,7.85
2022-07-25T11:23:22.456Z,2.83
2022-07-25T11:25:51.527Z,2.88
2022-07-25T11:28:19.074Z,1.95
2022-07-25T11:30:46.698Z,1.85
2022-07-25T11:33:17.658Z,2.13
2022-07-25T11:35:45.864Z,1.70
2022-07-25T11:38:14.978Z,1.60
2022-07-25T11:40:44.141Z,1.40
2022-07-25T11:43:23.464Z,1.15
2022-07-25T11:46:11.269Z,1.02
2022-07-25T11:48:40.726Z,2.80
2022-07-25T11:51:19.506Z,1.80
2022-07-25T11:53:49.856Z,1.30
2022-07-25T11:56:41.461Z,1.00
2022-07-25T11:59:08.215Z,1.40
2022-07-25T12:01:41.728Z,2.50
2022-07-25T12:04:10.541Z,0.90
2022-07-25T12:06:39.419Z,1.15
2022-07-25T12:09:19.392Z,1.67
2022-07-25T12:11:48.988Z,1.60
2022-07-25T12:14:17.061Z,1.17
2022-07-25T12:16:44.977Z,1.00
2022-07-25T12:19:21.548Z,1.20
2022-07-25T12:21:49.177Z,1.20
2022-07-25T12:24:16.741Z,1.38
2022-07-25T12:26:44.470Z,1.80
2022-07-25T12:29:12.288Z,0.70
2022-07-25T12:31:39.934Z,1.23
2022-07-25T12:34:07.488Z,2.35
2022-07-25T12:36:41.218Z,1.70
2022-07-25T12:39:09.106Z,0.70
2022-07-25T12:41:36.985Z,0.95
2022-07-25T12:44:04.887Z,0.63
2022-07-25T12:46:32.852Z,2.17
2022-07-25T12:49:00.536Z,1.88
2022-07-25T12:51:28.168Z,3.73
2022-07-25T12:53:55.797Z,1.40
2022-07-25T12:56:23.375Z,2.08
2022-07-25T12:58:51.235Z,1.27
2022-07-25T13:01:19.099Z,2.85
2022-07-25T13:03:47.190Z,1.40
2022-07-25T13:06:14.983Z,1.30
2022-07-25T13:08:42.679Z,2.78
2022-07-25T13:11:10.168Z,2.95
2022-07-25T13:13:38.090Z,2.22
2022-07-25T13:16:05.892Z,0.90
2022-07-25T13:18:33.582Z,2.00
2022-07-25T13:21:03.602Z,1.15
2022-07-25T13:23:31.203Z,3.40
2022-07-25T13:26:00.505Z,3.40
2022-07-25T13:28:28.810Z,2.43
2022-07-25T13:30:56.867Z,1.27
2022-07-25T13:33:24.793Z,2.05
2022-07-25T13:35:52.656Z,0.85
2022-07-25T13:38:20.578Z,1.58
2022-07-25T13:40:48.148Z,3.43
2022-07-25T13:43:15.911Z,4.57
2022-07-25T13:45:43.698Z,2.17
2022-07-25T13:48:29.174Z,2.05
2022-07-25T13:51:00.816Z,2.20
2022-07-25T13:53:30.539Z,1.40
2022-07-25T13:55:59.843Z,2.33
2022-07-25T13:58:28.153Z,1.15
2022-07-25T14:00:56.050Z,0.90
2022-07-25T14:03:23.790Z,0.80
2022-07-25T14:05:51.488Z,1.37
2022-07-25T14:08:19.433Z,1.33
2022-07-25T14:10:47.676Z,1.98
2022-07-25T14:13:15.205Z,1.23
2022-07-25T14:15:42.931Z,1.65
2022-07-25T14:18:10.617Z,1.03
2022-07-25T14:20:38.268Z,2.00
2022-07-25T14:23:05.826Z,1.70
2022-07-25T14:25:33.510Z,3.13
2022-07-25T14:28:01.282Z,1.92
2022-07-25T14:30:28.868Z,2.33
2022-07-25T14:32:56.437Z,2.13
2022-07-25T14:35:26.435Z,2.30
2022-07-25T14:37:58.083Z,2.50
2022-07-25T14:41:03.194Z,3.08
2022-07-25T14:43:49.792Z,2.80
2022-07-25T14:46:17.678Z,1.85
2022-07-25T14:48:45.520Z,2.40
2022-07-25T14:51:13.237Z,2.75
2022-07-25T14:53:40.916Z,3.58
2022-07-25T14:56:08.694Z,1.87
2022-07-25T14:58:36.338Z,6.40
2022-07-25T15:01:04.056Z,5.47
2022-07-25T15:03:31.744Z,2.70
2022-07-25T15:05:59.421Z,2.25
2022-07-25T15:08:26.911Z,2.60
2022-07-25T15:10:54.799Z,3.30
2022-07-25T15:13:31.522Z,3.63
2022-07-25T15:16:00.340Z,2.03
2022-07-25T15:18:28.394Z,1.85
2022-07-25T15:20:56.157Z,1.70
2022-07-25T15:23:25.494Z,2.70
2022-07-25T15:26:01.645Z,2.50
2022-07-25T15:28:33.105Z,3.65
2022-07-25T15:31:01.158Z,1.80
2022-07-25T15:33:28.974Z,2.77
2022-07-25T15:35:56.681Z,1.60
2022-07-25T15:38:24.804Z,2.00
2022-07-25T15:40:52.557Z,2.08
2022-07-25T15:43:20.148Z,1.50
2022-07-25T15:45:48.053Z,3.23
2022-07-25T15:48:17.034Z,2.50
2022-07-25T15:50:47.800Z,2.20
2022-07-25T15:53:15.938Z,2.53
2022-07-25T15:55:43.873Z,2.95
2022-07-25T15:58:13.075Z,3.80
2022-07-25T16:00:41.366Z,1.50
2022-07-25T16:03:09.613Z,2.10
2022-07-25T16:05:38.857Z,2.33
2022-07-25T16:08:08.484Z,4.80
2022-07-25T16:10:37.263Z,3.33
2022-07-25T16:13:04.947Z,1.83
2022-07-25T16:15:32.601Z,2.90
2022-07-25T16:18:03.020Z,2.25
2022-07-25T16:20:32.395Z,2.10
2022-07-25T16:23:00.751Z,2.00
2022-07-25T16:25:29.955Z,2.17
2022-07-25T16:27:59.006Z,1.95
2022-07-25T16:30:27.493Z,2.42
2022-07-25T16:32:55.654Z,2.03
2022-07-25T16:35:23.508Z,2.87
2022-07-25T16:37:51.457Z,1.98
2022-07-25T16:40:19.086Z,1.77
2022-07-25T16:43:12.870Z,3.55
2022-07-25T16:45:42.250Z,2.40
2022-07-25T16:48:09.959Z,2.93
2022-07-25T16:50:39.099Z,2.25
2022-07-25T16:53:06.844Z,3.20
2022-07-25T16:55:34.528Z,3.65
2022-07-25T16:58:02.638Z,3.42
2022-07-25T17:00:30.638Z,2.90
2022-07-25T17:02:58.624Z,2.50
2022-07-25T17:05:26.254Z,4.18
2022-07-25T17:07:59.477Z,2.33
2022-07-25T17:10:28.550Z,3.33
2022-07-25T17:13:03.659Z,3.17
2022-07-25T17:15:31.387Z,5.32
2022-07-25T17:17:59.466Z,3.90
2022-07-25T17:23:08.770Z,4.88
2022-07-25T17:25:36.422Z,5.20
2022-07-25T17:28:04.298Z,4.53
2022-07-25T17:30:31.870Z,5.80
2022-07-25T17:32:59.910Z,4.95
2022-07-25T17:35:27.817Z,3.80
2022-07-25T17:37:55.486Z,5.53
2022-07-25T17:40:23.185Z,2.78
2022-07-25T17:42:50.851Z,3.38
2022-07-25T17:45:19.092Z,2.85
2022-07-25T17:47:46.912Z,2.88
2022-07-25T17:50:16.921Z,2.37
2022-07-25T17:52:45.076Z,2.50
2022-07-25T17:55:12.781Z,2.70
2022-07-25T17:57:42.539Z,1.65
2022-07-25T18:00:11.969Z,2.42
2022-07-25T18:02:41.622Z,4.00
2022-07-25T18:05:09.449Z,5.45
2022-07-25T18:07:40.849Z,3.15
2022-07-25T18:10:08.762Z,3.78
2022-07-25T18:12:36.332Z,4.15
2022-07-25T18:15:05.280Z,3.53
2022-07-25T18:17:32.903Z,3.65
2022-07-25T18:20:00.528Z,5.13
2022-07-25T18:22:28.152Z,6.07
2022-07-25T18:24:55.899Z,2.97
2022-07-25T18:27:23.588Z,4.63
2022-07-25T18:29:51.278Z,5.22
2022-07-25T18:32:18.851Z,4.38
2022-07-25T18:34:46.498Z,1.95
2022-07-25T18:37:14.113Z,3.40
2022-07-25T18:39:42.354Z,4.87
2022-07-25T18:42:09.934Z,2.88
2022-07-25T18:44:37.592Z,4.75
2022-07-25T18:47:05.464Z,3.80
2022-07-25T18:49:34.037Z,4.78
2022-07-25T18:52:01.746Z,4.20
2022-07-25T18:54:29.368Z,3.83
2022-07-25T18:56:57.073Z,3.55
2022-07-25T18:59:25.748Z,4.55
2022-07-25T19:01:53.413Z,4.70
2022-07-25T19:04:21.189Z,4.17
2022-07-25T19:06:48.832Z,3.00
2022-07-25T19:09:16.601Z,3.53
2022-07-25T19:11:44.187Z,3.53
2022-07-25T19:14:12.001Z,3.92
2022-07-25T19:16:39.734Z,2.90
2022-07-25T19:19:08.947Z,2.88
2022-07-25T19:21:37.832Z,3.50
2022-07-25T19:24:06.168Z,3.88
2022-07-25T19:26:34.165Z,3.60
2022-07-25T19:29:01.867Z,4.30
2022-07-25T19:31:29.610Z,2.30
2022-07-25T19:33:57.214Z,3.30
2022-07-25T19:36:24.925Z,3.15
2022-07-25T19:38:52.505Z,2.53
2022-07-25T19:41:20.271Z,2.67
2022-07-25T19:43:47.929Z,3.17
2022-07-25T19:46:15.626Z,4.07
2022-07-25T19:48:43.274Z,3.42
2022-07-25T19:51:11.317Z,3.53
2022-07-25T19:53:38.998Z,4.30
2022-07-25T19:56:08.496Z,4.43
2022-07-25T19:58:38.930Z,3.63
2022-07-25T20:01:12.254Z,4.10
2022-07-25T20:03:40.547Z,2.92
2022-07-25T20:06:08.932Z,3.97
2022-07-25T20:08:39.518Z,3.40
2022-07-25T20:11:07.990Z,4.10
2022-07-25T20:13:35.855Z,4.25
2022-07-25T20:16:04.081Z,3.83
2022-07-25T20:18:32.181Z,2.80
2022-07-25T20:21:00.210Z,3.42
2022-07-25T20:23:27.919Z,5.45
2022-07-25T20:25:55.745Z,6.22
2022-07-25T20:28:23.504Z,5.32
2022-07-25T20:30:51.344Z,5.07
2022-07-25T20:33:19.311Z,6.15
2022-07-25T20:35:47.461Z,4.03
2022-07-25T20:38:15.187Z,7.53
2022-07-25T20:40:48.222Z,5.30
2022-07-25T20:43:18.302Z,9.30
2022-07-25T20:45:47.533Z,4.13
2022-07-25T20:48:15.816Z,4.43
2022-07-25T20:50:44.086Z,5.40
2022-07-25T20:53:11.834Z,3.50
2022-07-25T20:55:39.506Z,4.23
2022-07-25T20:58:07.236Z,4.03
2022-07-25T21:00:38.372Z,4.50
2022-07-25T21:03:08.280Z,3.88
2022-07-25T21:05:40.231Z,4.05
2022-07-25T21:08:11.123Z,3.63
2022-07-25T21:10:39.616Z,3.95
2022-07-25T21:13:07.213Z,3.97
2022-07-25T21:15:35.152Z,5.38
2022-07-25T21:18:03.093Z,9.85
2022-07-25T21:20:30.895Z,4.40
2022-07-25T21:22:58.651Z,5.93
2022-07-25T21:25:26.835Z,4.82
2022-07-25T21:27:54.539Z,5.35
2022-07-25T21:30:22.308Z,4.22
2022-07-25T21:32:49.918Z,4.83
2022-07-25T21:35:18.252Z,4.90
2022-07-25T21:37:46.530Z,2.70
2022-07-25T21:40:20.135Z,5.40
2022-07-25T21:42:47.779Z,3.75
2022-07-25T21:45:15.882Z,2.60
2022-07-25T21:47:52.964Z,3.38
2022-07-25T21:50:43.586Z,4.05
2022-07-25T21:53:14.514Z,2.70
2022-07-25T21:55:42.476Z,4.25
2022-07-25T22:01:18.693Z,3.08
2022-07-25T22:03:47.644Z,6.22
2022-07-25T22:06:15.293Z,3.13
2022-07-25T22:08:42.992Z,4.32
2022-07-25T22:11:20.736Z,4.57
2022-07-25T22:13:58.740Z,4.78
2022-07-25T22:16:26.461Z,4.13
2022-07-25T22:18:54.127Z,5.32
2022-07-25T22:21:21.732Z,4.53
2022-07-25T22:23:50.571Z,4.13
2022-07-25T22:26:20.310Z,5.68
2022-07-25T22:28:48.663Z,3.72
2022-07-25T22:31:17.140Z,4.43
2022-07-25T22:33:44.841Z,4.05
2022-07-25T22:36:12.447Z,5.77
2022-07-25T22:38:40.076Z,6.20
2022-07-25T22:41:10.372Z,4.75
2022-07-25T22:43:58.956Z,5.30
2022-07-25T22:46:25.749Z,3.47
2022-07-25T22:48:53.539Z,4.40
2022-07-25T22:51:22.604Z,4.63
2022-07-25T22:53:50.475Z,4.22
2022-07-25T22:56:18.260Z,3.72
2022-07-25T22:58:48.770Z,7.15
2022-07-25T23:01:20.964Z,3.17
2022-07-25T23:03:50.294Z,2.47
2022-07-25T23:06:19.888Z,4.35
2022-07-25T23:08:48.317Z,3.28
2022-07-25T23:11:16.300Z,4.38
2022-07-25T23:13:43.909Z,4.57
2022-07-25T23:16:11.510Z,4.35
2022-07-25T23:18:39.615Z,3.15
2022-07-25T23:21:07.287Z,3.42
2022-07-25T23:23:34.967Z,4.50
2022-07-25T23:26:03.308Z,3.27
2022-07-25T23:28:51.213Z,5.55
2022-07-25T23:31:19.067Z,3.63
2022-07-25T23:33:46.692Z,3.83
2022-07-25T23:36:14.277Z,3.00
2022-07-25T23:38:41.871Z,3.97
2022-07-25T23:41:09.530Z,3.80
2022-07-25T23:43:57.361Z,3.03
2022-07-25T23:46:27.783Z,2.78
2022-07-25T23:48:57.807Z,2.42
2022-07-25T23:51:25.913Z,3.00
2022-07-25T23:53:53.761Z,3.90
2022-07-25T23:56:21.481Z,2.95
2022-07-25T23:58:50.311Z,5.45
